sensor_id;sensor_type;location;lat;lon;timestamp;pressure;altitude;pressure_sealevel;temperature;humidity
36304;BME280;22335;49.800;8.596;2023-09-07T00:02:27;100799.44;;;26.14;42.24
36304;BME280;22335;49.800;8.596;2023-09-07T00:09:15;100810.66;;;26.14;41.93
36304;BME280;22335;49.800;8.596;2023-09-07T00:16:00;100804.84;;;25.99;42.22
36304;BME280;22335;49.800;8.596;2023-09-07T00:22:45;100801.09;;;25.88;42.43
36304;BME280;22335;49.800;8.596;2023-09-07T00:29:29;100805.34;;;25.79;42.49
36304;BME280;22335;49.800;8.596;2023-09-07T00:36:12;100804.03;;;25.69;42.50
36304;BME280;22335;49.800;8.596;2023-09-07T00:42:58;100797.13;;;25.63;42.63
36304;BME280;22335;49.800;8.596;2023-09-07T00:49:42;100795.53;;;25.62;42.56
36304;BME280;22335;49.800;8.596;2023-09-07T00:56:26;100795.38;;;25.51;42.67
36304;BME280;22335;49.800;8.596;2023-09-07T01:10:28;100771.94;;;25.63;42.57
36304;BME280;22335;49.800;8.596;2023-09-07T01:17:12;100774.19;;;25.53;43.24
36304;BME280;22335;49.800;8.596;2023-09-07T01:23:57;100769.44;;;25.27;43.46
36304;BME280;22335;49.800;8.596;2023-09-07T01:30:41;100777.22;;;25.15;43.96
36304;BME280;22335;49.800;8.596;2023-09-07T01:37:24;100782.31;;;25.09;44.00
36304;BME280;22335;49.800;8.596;2023-09-07T01:44:09;100766.59;;;25.01;44.33
36304;BME280;22335;49.800;8.596;2023-09-07T01:50:53;100777.53;;;24.87;44.25
36304;BME280;22335;49.800;8.596;2023-09-07T01:57:37;100770.09;;;24.94;44.29
36304;BME280;22335;49.800;8.596;2023-09-07T02:04:22;100765.69;;;24.93;44.24
36304;BME280;22335;49.800;8.596;2023-09-07T02:11:06;100742.94;;;24.72;44.31
36304;BME280;22335;49.800;8.596;2023-09-07T02:17:50;100781.47;;;24.82;45.19
36304;BME280;22335;49.800;8.596;2023-09-07T02:24:36;100763.88;;;24.81;44.59
36304;BME280;22335;49.800;8.596;2023-09-07T02:31:20;100764.63;;;24.78;44.72
36304;BME280;22335;49.800;8.596;2023-09-07T02:38:04;100771.22;;;24.67;44.84
36304;BME280;22335;49.800;8.596;2023-09-07T02:44:49;100754.81;;;24.42;45.15
36304;BME280;22335;49.800;8.596;2023-09-07T03:06:36;100771.50;;;24.38;45.36
36304;BME280;22335;49.800;8.596;2023-09-07T03:13:20;100775.81;;;24.36;45.14
36304;BME280;22335;49.800;8.596;2023-09-07T03:20:04;100730.63;;;24.11;45.23
36304;BME280;22335;49.800;8.596;2023-09-07T03:26:59;100759.59;;;24.22;45.74
36304;BME280;22335;49.800;8.596;2023-09-07T03:33:42;100757.06;;;23.94;45.81
36304;BME280;22335;49.800;8.596;2023-09-07T03:40:26;100764.41;;;24.02;45.76
36304;BME280;22335;49.800;8.596;2023-09-07T03:47:13;100759.13;;;23.97;46.18
36304;BME280;22335;49.800;8.596;2023-09-07T03:53:57;100770.72;;;23.99;46.37
36304;BME280;22335;49.800;8.596;2023-09-07T04:00:41;100765.44;;;23.94;45.96
36304;BME280;22335;49.800;8.596;2023-09-07T04:07:27;100765.59;;;23.82;46.29
36304;BME280;22335;49.800;8.596;2023-09-07T04:14:10;100769.03;;;23.75;46.38
36304;BME280;22335;49.800;8.596;2023-09-07T04:21:04;100735.06;;;23.38;46.56
36304;BME280;22335;49.800;8.596;2023-09-07T04:27:50;100774.69;;;23.43;46.29
36304;BME280;22335;49.800;8.596;2023-09-07T04:34:34;100783.38;;;23.22;46.43
36304;BME280;22335;49.800;8.596;2023-09-07T04:41:17;100789.97;;;23.14;46.35
36304;BME280;22335;49.800;8.596;2023-09-07T04:48:03;100774.59;;;23.05;46.58
36304;BME280;22335;49.800;8.596;2023-09-07T04:54:47;100758.19;;;22.87;46.71
36304;BME280;22335;49.800;8.596;2023-09-07T05:01:32;100791.34;;;23.05;46.54
36304;BME280;22335;49.800;8.596;2023-09-07T05:08:17;100785.38;;;23.06;46.66
36304;BME280;22335;49.800;8.596;2023-09-07T05:15:03;100783.84;;;22.93;46.77
36304;BME280;22335;49.800;8.596;2023-09-07T05:21:49;100807.06;;;22.97;46.84
36304;BME280;22335;49.800;8.596;2023-09-07T05:28:34;100804.75;;;22.99;46.71
36304;BME280;22335;49.800;8.596;2023-09-07T05:35:17;100828.47;;;22.93;46.92
36304;BME280;22335;49.800;8.596;2023-09-07T05:42:02;100829.47;;;23.00;47.56
36304;BME280;22335;49.800;8.596;2023-09-07T05:48:47;100806.91;;;23.06;47.89
36304;BME280;22335;49.800;8.596;2023-09-07T05:55:31;100820.22;;;23.12;48.06
36304;BME280;22335;49.800;8.596;2023-09-07T06:02:16;100821.22;;;23.20;47.80
36304;BME280;22335;49.800;8.596;2023-09-07T06:09:01;100771.28;;;22.99;48.08
36304;BME280;22335;49.800;8.596;2023-09-07T06:15:45;100829.75;;;23.27;48.07
36304;BME280;22335;49.800;8.596;2023-09-07T06:22:28;100811.56;;;23.17;48.22
36304;BME280;22335;49.800;8.596;2023-09-07T06:29:13;100832.44;;;23.39;48.29
36304;BME280;22335;49.800;8.596;2023-09-07T06:35:59;100827.41;;;23.64;47.83
36304;BME280;22335;49.800;8.596;2023-09-07T06:42:44;100841.91;;;23.86;47.62
36304;BME280;22335;49.800;8.596;2023-09-07T06:49:31;100843.81;;;24.01;47.54
36304;BME280;22335;49.800;8.596;2023-09-07T06:56:15;100851.25;;;24.13;47.45
36304;BME280;22335;49.800;8.596;2023-09-07T07:02:58;100860.22;;;24.22;47.49
36304;BME280;22335;49.800;8.596;2023-09-07T07:09:44;100861.63;;;24.32;47.95
36304;BME280;22335;49.800;8.596;2023-09-07T07:16:28;100874.06;;;24.34;47.73
36304;BME280;22335;49.800;8.596;2023-09-07T07:23:11;100874.69;;;24.44;47.61
36304;BME280;22335;49.800;8.596;2023-09-07T07:29:57;100876.47;;;24.55;47.69
36304;BME280;22335;49.800;8.596;2023-09-07T07:36:40;100849.38;;;24.40;47.44
36304;BME280;22335;49.800;8.596;2023-09-07T07:43:24;100879.13;;;24.68;47.30
36304;BME280;22335;49.800;8.596;2023-09-07T07:50:09;100866.50;;;24.77;47.56
36304;BME280;22335;49.800;8.596;2023-09-07T07:56:53;100878.03;;;24.95;47.24
36304;BME280;22335;49.800;8.596;2023-09-07T08:03:37;100880.03;;;25.18;47.04
36304;BME280;22335;49.800;8.596;2023-09-07T08:10:22;100843.66;;;25.18;46.46
36304;BME280;22335;49.800;8.596;2023-09-07T08:17:06;100853.50;;;25.31;46.65
36304;BME280;22335;49.800;8.596;2023-09-07T08:23:50;100878.81;;;25.65;46.48
36304;BME280;22335;49.800;8.596;2023-09-07T08:30:35;100844.50;;;25.71;46.01
36304;BME280;22335;49.800;8.596;2023-09-07T08:37:19;100866.97;;;26.02;46.09
36304;BME280;22335;49.800;8.596;2023-09-07T08:44:04;100874.78;;;26.19;45.79
36304;BME280;22335;49.800;8.596;2023-09-07T08:50:50;100866.38;;;26.19;46.07
36304;BME280;22335;49.800;8.596;2023-09-07T08:57:35;100822.22;;;26.12;45.51
36304;BME280;22335;49.800;8.596;2023-09-07T09:04:18;100869.72;;;26.62;45.02
36304;BME280;22335;49.800;8.596;2023-09-07T09:11:03;100863.06;;;26.77;44.94
36304;BME280;22335;49.800;8.596;2023-09-07T09:17:48;100880.06;;;26.95;44.44
36304;BME280;22335;49.800;8.596;2023-09-07T09:24:32;100869.09;;;27.20;44.40
36304;BME280;22335;49.800;8.596;2023-09-07T09:31:17;100855.25;;;27.45;43.70
36304;BME280;22335;49.800;8.596;2023-09-07T09:38:01;100857.78;;;27.68;43.47
36304;BME280;22335;49.800;8.596;2023-09-07T09:44:49;100791.09;;;27.54;43.23
36304;BME280;22335;49.800;8.596;2023-09-07T09:51:34;100834.75;;;28.11;42.47
36304;BME280;22335;49.800;8.596;2023-09-07T09:58:18;100826.06;;;28.41;42.35
36304;BME280;22335;49.800;8.596;2023-09-07T10:05:02;100817.25;;;28.53;41.97
36304;BME280;22335;49.800;8.596;2023-09-07T10:11:53;100809.22;;;28.62;42.06
36304;BME280;22335;49.800;8.596;2023-09-07T10:18:41;100808.03;;;28.78;41.38
36304;BME280;22335;49.800;8.596;2023-09-07T10:25:30;100779.88;;;28.85;41.05
36304;BME280;22335;49.800;8.596;2023-09-07T10:32:15;100789.13;;;29.10;40.54
36304;BME280;22335;49.800;8.596;2023-09-07T10:39:01;100755.34;;;29.03;40.50
36304;BME280;22335;49.800;8.596;2023-09-07T10:45:45;100785.84;;;29.44;40.30
36304;BME280;22335;49.800;8.596;2023-09-07T10:52:33;100773.31;;;29.74;39.45
36304;BME280;22335;49.800;8.596;2023-09-07T10:59:17;100782.53;;;29.92;38.95
36304;BME280;22335;49.800;8.596;2023-09-07T11:06:06;100766.72;;;30.09;38.82
36304;BME280;22335;49.800;8.596;2023-09-07T11:12:52;100751.75;;;30.23;38.25
36304;BME280;22335;49.800;8.596;2023-09-07T11:19:36;100753.25;;;30.42;38.13
36304;BME280;22335;49.800;8.596;2023-09-07T11:26:20;100742.66;;;30.53;37.43
36304;BME280;22335;49.800;8.596;2023-09-07T11:33:06;100740.63;;;30.57;38.05
36304;BME280;22335;49.800;8.596;2023-09-07T11:39:50;100753.00;;;30.74;37.39
36304;BME280;22335;49.800;8.596;2023-09-07T11:46:33;100748.13;;;30.78;36.65
36304;BME280;22335;49.800;8.596;2023-09-07T11:53:18;100743.59;;;30.91;36.58
36304;BME280;22335;49.800;8.596;2023-09-07T12:00:02;100738.69;;;30.99;37.12
36304;BME280;22335;49.800;8.596;2023-09-07T12:06:51;100742.16;;;31.14;36.01
36304;BME280;22335;49.800;8.596;2023-09-07T12:13:36;100723.88;;;31.26;35.25
36304;BME280;22335;49.800;8.596;2023-09-07T12:20:19;100716.59;;;31.24;36.05
36304;BME280;22335;49.800;8.596;2023-09-07T12:27:03;100715.56;;;31.49;35.11
36304;BME280;22335;49.800;8.596;2023-09-07T12:33:48;100698.09;;;31.58;34.82
36304;BME280;22335;49.800;8.596;2023-09-07T12:40:33;100678.19;;;31.65;34.39
36304;BME280;22335;49.800;8.596;2023-09-07T12:47:16;100706.53;;;31.92;33.53
36304;BME280;22335;49.800;8.596;2023-09-07T12:54:01;100688.31;;;31.97;33.40
36304;BME280;22335;49.800;8.596;2023-09-07T13:00:45;100701.91;;;32.05;33.59
36304;BME280;22335;49.800;8.596;2023-09-07T13:07:29;100695.66;;;32.18;33.35
36304;BME280;22335;49.800;8.596;2023-09-07T13:14:15;100677.78;;;32.24;32.81
36304;BME280;22335;49.800;8.596;2023-09-07T13:20:58;100670.03;;;32.28;32.72
36304;BME280;22335;49.800;8.596;2023-09-07T13:27:42;100663.13;;;32.29;32.19
36304;BME280;22335;49.800;8.596;2023-09-07T13:34:27;100662.06;;;32.47;31.85
36304;BME280;22335;49.800;8.596;2023-09-07T13:41:11;100664.28;;;32.59;32.46
36304;BME280;22335;49.800;8.596;2023-09-07T13:47:54;100660.69;;;32.78;31.84
36304;BME280;22335;49.800;8.596;2023-09-07T13:54:39;100624.00;;;32.71;31.39
36304;BME280;22335;49.800;8.596;2023-09-07T14:01:22;100657.16;;;32.94;31.46
36304;BME280;22335;49.800;8.596;2023-09-07T14:08:06;100649.63;;;33.08;32.07
36304;BME280;22335;49.800;8.596;2023-09-07T14:14:50;100635.47;;;33.27;31.77
36304;BME280;22335;49.800;8.596;2023-09-07T14:21:34;100635.44;;;33.47;30.58
36304;BME280;22335;49.800;8.596;2023-09-07T14:28:17;100636.41;;;33.41;30.67
36304;BME280;22335;49.800;8.596;2023-09-07T14:35:02;100629.50;;;33.42;30.50
36304;BME280;22335;49.800;8.596;2023-09-07T14:41:46;100622.66;;;33.59;30.26
36304;BME280;22335;49.800;8.596;2023-09-07T14:48:30;100618.94;;;33.62;30.22
36304;BME280;22335;49.800;8.596;2023-09-07T14:55:15;100609.53;;;33.65;30.24
36304;BME280;22335;49.800;8.596;2023-09-07T15:01:59;100613.03;;;33.73;29.70
36304;BME280;22335;49.800;8.596;2023-09-07T15:08:44;100618.44;;;33.67;29.96
36304;BME280;22335;49.800;8.596;2023-09-07T15:15:30;100608.50;;;33.75;29.50
36304;BME280;22335;49.800;8.596;2023-09-07T15:22:17;100605.25;;;33.57;29.66
36304;BME280;22335;49.800;8.596;2023-09-07T15:29:03;100604.38;;;33.60;29.92
36304;BME280;22335;49.800;8.596;2023-09-07T15:35:48;100561.88;;;33.40;29.65
36304;BME280;22335;49.800;8.596;2023-09-07T15:42:32;100602.28;;;33.64;29.86
36304;BME280;22335;49.800;8.596;2023-09-07T15:49:16;100600.66;;;33.63;29.73
36304;BME280;22335;49.800;8.596;2023-09-07T15:56:00;100606.09;;;33.58;30.24
36304;BME280;22335;49.800;8.596;2023-09-07T16:02:45;100610.34;;;33.66;29.76
36304;BME280;22335;49.800;8.596;2023-09-07T16:09:28;100613.25;;;33.62;29.47
36304;BME280;22335;49.800;8.596;2023-09-07T16:16:13;100603.25;;;33.58;29.36
36304;BME280;22335;49.800;8.596;2023-09-07T16:22:56;100608.19;;;33.54;29.45
36304;BME280;22335;49.800;8.596;2023-09-07T16:29:40;100618.00;;;33.49;29.27
36304;BME280;22335;49.800;8.596;2023-09-07T16:36:27;100606.59;;;33.53;29.79
36304;BME280;22335;49.800;8.596;2023-09-07T16:43:10;100608.94;;;33.58;29.67
36304;BME280;22335;49.800;8.596;2023-09-07T16:49:53;100615.03;;;33.56;29.50
36304;BME280;22335;49.800;8.596;2023-09-07T16:56:38;100615.91;;;33.53;29.90
36304;BME280;22335;49.800;8.596;2023-09-07T17:03:22;100627.75;;;33.48;29.63
36304;BME280;22335;49.800;8.596;2023-09-07T17:10:06;100621.72;;;33.46;30.21
36304;BME280;22335;49.800;8.596;2023-09-07T17:16:51;100616.41;;;33.48;30.24
36304;BME280;22335;49.800;8.596;2023-09-07T17:23:34;100622.97;;;33.45;30.47
36304;BME280;22335;49.800;8.596;2023-09-07T17:30:18;100621.06;;;33.38;30.63
36304;BME280;22335;49.800;8.596;2023-09-07T17:37:03;100619.47;;;33.37;30.79
36304;BME280;22335;49.800;8.596;2023-09-07T17:43:47;100635.84;;;33.29;31.34
36304;BME280;22335;49.800;8.596;2023-09-07T17:50:30;100632.25;;;33.25;31.39
36304;BME280;22335;49.800;8.596;2023-09-07T17:57:15;100623.53;;;33.16;31.58
36304;BME280;22335;49.800;8.596;2023-09-07T18:03:58;100580.19;;;32.76;31.60
36304;BME280;22335;49.800;8.596;2023-09-07T18:10:42;100649.94;;;33.13;32.22
36304;BME280;22335;49.800;8.596;2023-09-07T18:17:27;100645.28;;;33.03;32.34
36304;BME280;22335;49.800;8.596;2023-09-07T18:24:10;100654.84;;;32.89;32.74
36304;BME280;22335;49.800;8.596;2023-09-07T18:30:54;100667.34;;;32.68;33.15
36304;BME280;22335;49.800;8.596;2023-09-07T18:37:39;100653.38;;;32.57;33.53
36304;BME280;22335;49.800;8.596;2023-09-07T18:44:22;100664.84;;;32.50;34.12
36304;BME280;22335;49.800;8.596;2023-09-07T18:51:08;100670.97;;;32.45;33.96
36304;BME280;22335;49.800;8.596;2023-09-07T18:57:54;100661.84;;;32.34;34.30
36304;BME280;22335;49.800;8.596;2023-09-07T19:04:37;100664.69;;;32.07;34.78
36304;BME280;22335;49.800;8.596;2023-09-07T19:11:21;100673.59;;;31.78;35.38
36304;BME280;22335;49.800;8.596;2023-09-07T19:18:06;100659.06;;;31.45;35.71
36304;BME280;22335;49.800;8.596;2023-09-07T19:24:49;100676.25;;;31.24;36.21
36304;BME280;22335;49.800;8.596;2023-09-07T19:31:33;100678.06;;;31.07;36.14
36304;BME280;22335;49.800;8.596;2023-09-07T19:38:18;100670.91;;;30.95;36.66
36304;BME280;22335;49.800;8.596;2023-09-07T19:45:02;100674.34;;;30.72;36.64
36304;BME280;22335;49.800;8.596;2023-09-07T19:51:46;100686.22;;;30.53;37.33
36304;BME280;22335;49.800;8.596;2023-09-07T19:58:31;100675.50;;;30.33;37.88
36304;BME280;22335;49.800;8.596;2023-09-07T20:05:15;100675.59;;;30.16;37.84
36304;BME280;22335;49.800;8.596;2023-09-07T20:12:00;100674.03;;;30.04;38.13
36304;BME280;22335;49.800;8.596;2023-09-07T20:18:45;100674.56;;;29.84;38.43
36304;BME280;22335;49.800;8.596;2023-09-07T20:25:29;100690.38;;;29.68;38.01
36304;BME280;22335;49.800;8.596;2023-09-07T20:32:12;100687.19;;;29.51;38.26
36304;BME280;22335;49.800;8.596;2023-09-07T20:38:57;100685.28;;;29.27;38.99
36304;BME280;22335;49.800;8.596;2023-09-07T20:45:41;100690.16;;;29.12;38.82
36304;BME280;22335;49.800;8.596;2023-09-07T20:52:24;100688.13;;;28.98;39.46
36304;BME280;22335;49.800;8.596;2023-09-07T20:59:09;100668.84;;;28.86;39.68
36304;BME280;22335;49.800;8.596;2023-09-07T21:05:52;100691.78;;;28.81;39.11
36304;BME280;22335;49.800;8.596;2023-09-07T21:12:36;100690.59;;;28.75;39.38
36304;BME280;22335;49.800;8.596;2023-09-07T21:19:22;100677.31;;;28.64;39.36
36304;BME280;22335;49.800;8.596;2023-09-07T21:26:05;100672.88;;;28.38;39.37
36304;BME280;22335;49.800;8.596;2023-09-07T21:32:49;100686.53;;;28.40;39.59
36304;BME280;22335;49.800;8.596;2023-09-07T21:39:34;100680.50;;;28.27;39.48
36304;BME280;22335;49.800;8.596;2023-09-07T21:46:18;100687.31;;;28.12;39.58
36304;BME280;22335;49.800;8.596;2023-09-07T21:53:02;100682.84;;;27.96;40.13
36304;BME280;22335;49.800;8.596;2023-09-07T21:59:47;100674.41;;;27.78;40.34
36304;BME280;22335;49.800;8.596;2023-09-07T22:06:31;100673.09;;;27.65;39.77
36304;BME280;22335;49.800;8.596;2023-09-07T22:13:15;100686.28;;;27.47;40.64
36304;BME280;22335;49.800;8.596;2023-09-07T22:20:00;100672.16;;;27.29;40.98
36304;BME280;22335;49.800;8.596;2023-09-07T22:26:45;100656.75;;;27.05;40.93
36304;BME280;22335;49.800;8.596;2023-09-07T22:33:30;100667.22;;;27.11;41.05
36304;BME280;22335;49.800;8.596;2023-09-07T22:40:15;100638.19;;;26.86;41.17
36304;BME280;22335;49.800;8.596;2023-09-07T22:46:59;100664.72;;;26.96;41.12
36304;BME280;22335;49.800;8.596;2023-09-07T22:53:43;100664.25;;;26.86;41.23
36304;BME280;22335;49.800;8.596;2023-09-07T23:00:27;100650.94;;;26.73;41.43
36304;BME280;22335;49.800;8.596;2023-09-07T23:07:11;100660.97;;;26.74;41.35
36304;BME280;22335;49.800;8.596;2023-09-07T23:13:55;100674.25;;;26.80;41.17
36304;BME280;22335;49.800;8.596;2023-09-07T23:20:39;100661.78;;;26.78;41.20
36304;BME280;22335;49.800;8.596;2023-09-07T23:27:23;100672.66;;;26.79;41.12
36304;BME280;22335;49.800;8.596;2023-09-07T23:34:07;100662.56;;;26.75;40.86
36304;BME280;22335;49.800;8.596;2023-09-07T23:40:52;100654.13;;;26.71;41.12
36304;BME280;22335;49.800;8.596;2023-09-07T23:47:37;100651.31;;;26.67;41.08
36304;BME280;22335;49.800;8.596;2023-09-07T23:54:20;100610.13;;;26.31;41.16
